sensor_id;sensor_type;location;lat;lon;timestamp;temperature;humidity
11229;DHT22;5671;47.936;8.716;2022-09-13T00:01:23;10.60;75.80
11229;DHT22;5671;47.936;8.716;2022-09-13T00:03:53;10.60;76.00
11229;DHT22;5671;47.936;8.716;2022-09-13T00:06:21;10.60;76.70
11229;DHT22;5671;47.936;8.716;2022-09-13T00:08:48;10.60;76.60
11229;DHT22;5671;47.936;8.716;2022-09-13T00:11:16;10.50;76.50
11229;DHT22;5671;47.936;8.716;2022-09-13T00:13:44;10.50;75.60
11229;DHT22;5671;47.936;8.716;2022-09-13T00:16:13;10.50;76.10
11229;DHT22;5671;47.936;8.716;2022-09-13T00:18:40;10.50;76.00
11229;DHT22;5671;47.936;8.716;2022-09-13T00:21:10;10.50;76.30
11229;DHT22;5671;47.936;8.716;2022-09-13T00:23:38;10.40;76.10
11229;DHT22;5671;47.936;8.716;2022-09-13T00:26:08;10.40;76.90
11229;DHT22;5671;47.936;8.716;2022-09-13T00:28:37;10.30;76.90
11229;DHT22;5671;47.936;8.716;2022-09-13T00:31:08;10.30;76.20
11229;DHT22;5671;47.936;8.716;2022-09-13T00:33:35;10.30;76.20
11229;DHT22;5671;47.936;8.716;2022-09-13T00:36:04;10.30;76.20
11229;DHT22;5671;47.936;8.716;2022-09-13T00:38:34;10.30;76.30
11229;DHT22;5671;47.936;8.716;2022-09-13T00:41:02;10.20;76.90
11229;DHT22;5671;47.936;8.716;2022-09-13T00:43:45;10.20;76.30
11229;DHT22;5671;47.936;8.716;2022-09-13T00:46:18;10.20;77.30
11229;DHT22;5671;47.936;8.716;2022-09-13T00:48:48;10.20;76.40
11229;DHT22;5671;47.936;8.716;2022-09-13T00:51:16;10.20;76.40
11229;DHT22;5671;47.936;8.716;2022-09-13T00:53:48;10.10;76.80
11229;DHT22;5671;47.936;8.716;2022-09-13T00:56:25;10.10;76.50
11229;DHT22;5671;47.936;8.716;2022-09-13T00:58:59;10.10;76.60
11229;DHT22;5671;47.936;8.716;2022-09-13T01:01:34;10.10;76.80
11229;DHT22;5671;47.936;8.716;2022-09-13T01:04:05;10.10;76.90
11229;DHT22;5671;47.936;8.716;2022-09-13T01:06:37;10.10;76.80
11229;DHT22;5671;47.936;8.716;2022-09-13T01:09:10;10.00;76.70
11229;DHT22;5671;47.936;8.716;2022-09-13T01:11:44;10.00;76.10
11229;DHT22;5671;47.936;8.716;2022-09-13T01:14:16;10.00;76.10
11229;DHT22;5671;47.936;8.716;2022-09-13T01:16:43;9.90;76.20
11229;DHT22;5671;47.936;8.716;2022-09-13T01:19:10;9.90;76.30
11229;DHT22;5671;47.936;8.716;2022-09-13T01:25:05;9.90;76.60
11229;DHT22;5671;47.936;8.716;2022-09-13T01:27:48;9.80;77.10
11229;DHT22;5671;47.936;8.716;2022-09-13T01:30:23;9.80;76.30
11229;DHT22;5671;47.936;8.716;2022-09-13T01:33:15;9.80;77.10
11229;DHT22;5671;47.936;8.716;2022-09-13T01:35:55;9.80;77.10
11229;DHT22;5671;47.936;8.716;2022-09-13T01:38:39;9.80;76.80
11229;DHT22;5671;47.936;8.716;2022-09-13T01:41:18;9.70;77.30
11229;DHT22;5671;47.936;8.716;2022-09-13T01:44:58;9.70;77.00
11229;DHT22;5671;47.936;8.716;2022-09-13T01:47:32;9.70;78.00
11229;DHT22;5671;47.936;8.716;2022-09-13T01:50:25;9.70;77.00
11229;DHT22;5671;47.936;8.716;2022-09-13T01:53:04;9.70;77.50
11229;DHT22;5671;47.936;8.716;2022-09-13T01:58:25;9.60;77.10
11229;DHT22;5671;47.936;8.716;2022-09-13T02:00:57;9.60;77.40
11229;DHT22;5671;47.936;8.716;2022-09-13T02:03:32;9.50;77.50
11229;DHT22;5671;47.936;8.716;2022-09-13T02:06:07;9.50;77.40
11229;DHT22;5671;47.936;8.716;2022-09-13T02:08:38;9.50;77.40
11229;DHT22;5671;47.936;8.716;2022-09-13T02:11:09;9.50;77.60
11229;DHT22;5671;47.936;8.716;2022-09-13T02:13:39;9.50;76.80
11229;DHT22;5671;47.936;8.716;2022-09-13T02:16:14;9.50;78.30
11229;DHT22;5671;47.936;8.716;2022-09-13T02:18:48;9.40;76.90
11229;DHT22;5671;47.936;8.716;2022-09-13T02:21:21;9.40;78.10
11229;DHT22;5671;47.936;8.716;2022-09-13T02:23:55;9.40;77.60
11229;DHT22;5671;47.936;8.716;2022-09-13T02:26:24;9.40;77.60
11229;DHT22;5671;47.936;8.716;2022-09-13T02:28:55;9.40;79.00
11229;DHT22;5671;47.936;8.716;2022-09-13T02:31:27;9.30;77.90
11229;DHT22;5671;47.936;8.716;2022-09-13T02:34:00;9.30;77.60
11229;DHT22;5671;47.936;8.716;2022-09-13T02:36:31;9.30;78.90
11229;DHT22;5671;47.936;8.716;2022-09-13T02:39:03;9.30;77.30
11229;DHT22;5671;47.936;8.716;2022-09-13T02:41:36;9.30;77.20
11229;DHT22;5671;47.936;8.716;2022-09-13T02:44:10;9.20;77.30
11229;DHT22;5671;47.936;8.716;2022-09-13T02:47:00;9.20;76.90
11229;DHT22;5671;47.936;8.716;2022-09-13T02:49:37;9.10;76.50
11229;DHT22;5671;47.936;8.716;2022-09-13T02:52:11;9.10;77.60
11229;DHT22;5671;47.936;8.716;2022-09-13T02:54:46;9.10;78.10
11229;DHT22;5671;47.936;8.716;2022-09-13T02:57:20;9.10;79.80
11229;DHT22;5671;47.936;8.716;2022-09-13T02:59:52;9.10;78.60
11229;DHT22;5671;47.936;8.716;2022-09-13T03:02:22;9.10;79.70
11229;DHT22;5671;47.936;8.716;2022-09-13T03:04:52;9.10;78.90
11229;DHT22;5671;47.936;8.716;2022-09-13T03:07:20;9.10;78.00
11229;DHT22;5671;47.936;8.716;2022-09-13T03:09:49;9.10;78.00
11229;DHT22;5671;47.936;8.716;2022-09-13T03:12:39;9.10;78.10
11229;DHT22;5671;47.936;8.716;2022-09-13T03:15:16;9.00;78.30
11229;DHT22;5671;47.936;8.716;2022-09-13T03:17:53;9.00;80.10
11229;DHT22;5671;47.936;8.716;2022-09-13T03:20:32;9.00;79.70
11229;DHT22;5671;47.936;8.716;2022-09-13T03:23:22;9.00;79.30
11229;DHT22;5671;47.936;8.716;2022-09-13T03:29:12;9.00;78.70
11229;DHT22;5671;47.936;8.716;2022-09-13T03:31:47;9.00;79.00
11229;DHT22;5671;47.936;8.716;2022-09-13T03:34:22;9.00;78.60
11229;DHT22;5671;47.936;8.716;2022-09-13T03:36:55;8.90;78.10
11229;DHT22;5671;47.936;8.716;2022-09-13T03:39:28;8.90;78.30
11229;DHT22;5671;47.936;8.716;2022-09-13T03:42:01;8.90;78.60
11229;DHT22;5671;47.936;8.716;2022-09-13T03:44:30;8.90;78.80
11229;DHT22;5671;47.936;8.716;2022-09-13T03:47:00;8.80;78.30
11229;DHT22;5671;47.936;8.716;2022-09-13T03:49:30;8.80;78.40
11229;DHT22;5671;47.936;8.716;2022-09-13T03:51:59;8.80;77.90
11229;DHT22;5671;47.936;8.716;2022-09-13T03:54:28;8.80;78.30
11229;DHT22;5671;47.936;8.716;2022-09-13T03:57:10;8.80;79.50
11229;DHT22;5671;47.936;8.716;2022-09-13T03:59:42;8.70;79.30
11229;DHT22;5671;47.936;8.716;2022-09-13T04:02:10;8.80;78.10
11229;DHT22;5671;47.936;8.716;2022-09-13T04:04:38;8.70;78.90
11229;DHT22;5671;47.936;8.716;2022-09-13T04:07:08;8.70;78.50
11229;DHT22;5671;47.936;8.716;2022-09-13T04:09:35;8.70;77.90
11229;DHT22;5671;47.936;8.716;2022-09-13T04:12:03;8.70;79.20
11229;DHT22;5671;47.936;8.716;2022-09-13T04:14:30;8.70;79.80
11229;DHT22;5671;47.936;8.716;2022-09-13T04:16:58;8.70;79.10
11229;DHT22;5671;47.936;8.716;2022-09-13T04:19:33;8.70;78.20
11229;DHT22;5671;47.936;8.716;2022-09-13T04:22:00;8.60;80.40
11229;DHT22;5671;47.936;8.716;2022-09-13T04:24:29;8.60;79.50
11229;DHT22;5671;47.936;8.716;2022-09-13T04:26:59;8.60;79.10
11229;DHT22;5671;47.936;8.716;2022-09-13T04:29:27;8.60;78.60
11229;DHT22;5671;47.936;8.716;2022-09-13T04:31:54;8.60;78.50
11229;DHT22;5671;47.936;8.716;2022-09-13T04:34:21;8.60;78.50
11229;DHT22;5671;47.936;8.716;2022-09-13T04:36:49;8.60;78.50
11229;DHT22;5671;47.936;8.716;2022-09-13T04:39:19;8.50;78.60
11229;DHT22;5671;47.936;8.716;2022-09-13T04:41:48;8.50;78.80
11229;DHT22;5671;47.936;8.716;2022-09-13T04:44:16;8.50;78.40
11229;DHT22;5671;47.936;8.716;2022-09-13T04:46:46;8.50;78.90
11229;DHT22;5671;47.936;8.716;2022-09-13T04:49:14;8.50;78.90
11229;DHT22;5671;47.936;8.716;2022-09-13T04:51:41;8.50;79.80
11229;DHT22;5671;47.936;8.716;2022-09-13T04:54:09;8.50;78.90
11229;DHT22;5671;47.936;8.716;2022-09-13T04:56:36;8.50;78.70
11229;DHT22;5671;47.936;8.716;2022-09-13T04:59:04;8.40;79.20
11229;DHT22;5671;47.936;8.716;2022-09-13T05:01:31;8.40;80.20
11229;DHT22;5671;47.936;8.716;2022-09-13T05:04:04;8.40;78.80
11229;DHT22;5671;47.936;8.716;2022-09-13T05:06:32;8.40;79.50
11229;DHT22;5671;47.936;8.716;2022-09-13T05:08:59;8.40;80.80
11229;DHT22;5671;47.936;8.716;2022-09-13T05:11:27;8.40;79.20
11229;DHT22;5671;47.936;8.716;2022-09-13T05:13:55;8.40;80.70
11229;DHT22;5671;47.936;8.716;2022-09-13T05:16:31;8.40;80.70
11229;DHT22;5671;47.936;8.716;2022-09-13T05:19:01;8.40;79.80
11229;DHT22;5671;47.936;8.716;2022-09-13T05:21:29;8.40;80.50
11229;DHT22;5671;47.936;8.716;2022-09-13T05:24:10;8.40;79.50
11229;DHT22;5671;47.936;8.716;2022-09-13T05:26:39;8.40;79.40
11229;DHT22;5671;47.936;8.716;2022-09-13T05:29:28;8.40;79.80
11229;DHT22;5671;47.936;8.716;2022-09-13T05:35:04;8.50;80.10
11229;DHT22;5671;47.936;8.716;2022-09-13T05:37:31;8.50;80.80
11229;DHT22;5671;47.936;8.716;2022-09-13T05:40:01;8.50;79.70
11229;DHT22;5671;47.936;8.716;2022-09-13T05:42:30;8.50;80.00
11229;DHT22;5671;47.936;8.716;2022-09-13T05:45:00;8.50;80.40
11229;DHT22;5671;47.936;8.716;2022-09-13T05:47:33;8.50;80.60
11229;DHT22;5671;47.936;8.716;2022-09-13T05:50:05;8.60;81.70
11229;DHT22;5671;47.936;8.716;2022-09-13T05:52:32;8.60;81.70
11229;DHT22;5671;47.936;8.716;2022-09-13T05:54:59;8.60;81.30
11229;DHT22;5671;47.936;8.716;2022-09-13T05:57:26;8.70;80.70
11229;DHT22;5671;47.936;8.716;2022-09-13T05:59:53;8.70;81.80
11229;DHT22;5671;47.936;8.716;2022-09-13T06:02:20;8.70;81.10
11229;DHT22;5671;47.936;8.716;2022-09-13T06:04:47;8.80;82.10
11229;DHT22;5671;47.936;8.716;2022-09-13T06:07:16;8.80;84.10
11229;DHT22;5671;47.936;8.716;2022-09-13T06:09:43;8.90;83.80
11229;DHT22;5671;47.936;8.716;2022-09-13T06:12:10;8.90;82.60
11229;DHT22;5671;47.936;8.716;2022-09-13T06:14:37;9.00;84.30
11229;DHT22;5671;47.936;8.716;2022-09-13T06:17:04;9.00;84.20
11229;DHT22;5671;47.936;8.716;2022-09-13T06:19:31;9.10;84.40
11229;DHT22;5671;47.936;8.716;2022-09-13T06:21:58;9.20;84.80
11229;DHT22;5671;47.936;8.716;2022-09-13T06:24:26;9.20;83.30
11229;DHT22;5671;47.936;8.716;2022-09-13T06:26:53;9.30;83.40
11229;DHT22;5671;47.936;8.716;2022-09-13T06:29:20;9.40;84.20
11229;DHT22;5671;47.936;8.716;2022-09-13T06:31:47;9.50;85.50
11229;DHT22;5671;47.936;8.716;2022-09-13T06:34:14;9.60;86.40
11229;DHT22;5671;47.936;8.716;2022-09-13T06:36:42;9.60;86.20
11229;DHT22;5671;47.936;8.716;2022-09-13T06:39:09;9.80;86.30
11229;DHT22;5671;47.936;8.716;2022-09-13T06:41:38;9.80;85.20
11229;DHT22;5671;47.936;8.716;2022-09-13T06:44:05;10.00;86.90
11229;DHT22;5671;47.936;8.716;2022-09-13T06:46:33;10.10;86.10
11229;DHT22;5671;47.936;8.716;2022-09-13T06:49:02;10.20;85.60
11229;DHT22;5671;47.936;8.716;2022-09-13T06:51:29;10.30;85.00
11229;DHT22;5671;47.936;8.716;2022-09-13T06:54:04;10.40;85.90
11229;DHT22;5671;47.936;8.716;2022-09-13T06:56:33;10.50;85.80
11229;DHT22;5671;47.936;8.716;2022-09-13T06:59:24;10.60;87.10
11229;DHT22;5671;47.936;8.716;2022-09-13T07:02:05;10.80;87.20
11229;DHT22;5671;47.936;8.716;2022-09-13T07:04:32;10.90;86.00
11229;DHT22;5671;47.936;8.716;2022-09-13T07:06:59;11.00;85.30
11229;DHT22;5671;47.936;8.716;2022-09-13T07:09:26;11.10;86.50
11229;DHT22;5671;47.936;8.716;2022-09-13T07:11:54;11.20;86.90
11229;DHT22;5671;47.936;8.716;2022-09-13T07:14:24;11.40;87.70
11229;DHT22;5671;47.936;8.716;2022-09-13T07:16:52;11.50;86.00
11229;DHT22;5671;47.936;8.716;2022-09-13T07:19:21;11.60;87.20
11229;DHT22;5671;47.936;8.716;2022-09-13T07:21:55;11.70;87.70
11229;DHT22;5671;47.936;8.716;2022-09-13T07:24:23;11.90;88.50
11229;DHT22;5671;47.936;8.716;2022-09-13T07:26:50;12.00;87.00
11229;DHT22;5671;47.936;8.716;2022-09-13T07:29:19;12.20;88.30
11229;DHT22;5671;47.936;8.716;2022-09-13T07:31:50;12.30;86.90
11229;DHT22;5671;47.936;8.716;2022-09-13T07:34:19;12.40;86.00
11229;DHT22;5671;47.936;8.716;2022-09-13T07:36:47;12.60;86.10
11229;DHT22;5671;47.936;8.716;2022-09-13T07:39:15;12.70;86.20
11229;DHT22;5671;47.936;8.716;2022-09-13T07:41:42;12.80;86.40
11229;DHT22;5671;47.936;8.716;2022-09-13T07:44:18;13.00;87.20
11229;DHT22;5671;47.936;8.716;2022-09-13T07:46:55;13.20;88.10
11229;DHT22;5671;47.936;8.716;2022-09-13T07:49:23;13.30;87.40
11229;DHT22;5671;47.936;8.716;2022-09-13T07:51:52;13.50;88.10
11229;DHT22;5671;47.936;8.716;2022-09-13T07:54:19;13.70;88.10
11229;DHT22;5671;47.936;8.716;2022-09-13T07:56:47;13.90;87.10
11229;DHT22;5671;47.936;8.716;2022-09-13T07:59:35;14.10;85.20
11229;DHT22;5671;47.936;8.716;2022-09-13T08:02:04;14.30;83.70
11229;DHT22;5671;47.936;8.716;2022-09-13T08:04:41;14.40;83.50
11229;DHT22;5671;47.936;8.716;2022-09-13T08:34:14;15.80;78.70
11229;DHT22;5671;47.936;8.716;2022-09-13T08:36:41;15.90;78.50
11229;DHT22;5671;47.936;8.716;2022-09-13T08:39:27;16.00;77.20
11229;DHT22;5671;47.936;8.716;2022-09-13T08:42:35;16.10;77.10
11229;DHT22;5671;47.936;8.716;2022-09-13T08:45:07;16.20;76.30
11229;DHT22;5671;47.936;8.716;2022-09-13T08:47:39;16.30;75.60
11229;DHT22;5671;47.936;8.716;2022-09-13T08:50:14;16.40;78.30
11229;DHT22;5671;47.936;8.716;2022-09-13T08:53:21;16.50;77.40
11229;DHT22;5671;47.936;8.716;2022-09-13T08:56:24;16.70;76.70
11229;DHT22;5671;47.936;8.716;2022-09-13T08:59:28;16.80;75.70
11229;DHT22;5671;47.936;8.716;2022-09-13T09:02:24;17.00;75.80
11229;DHT22;5671;47.936;8.716;2022-09-13T09:05:05;17.10;75.50
11229;DHT22;5671;47.936;8.716;2022-09-13T09:07:45;17.30;75.90
11229;DHT22;5671;47.936;8.716;2022-09-13T09:10:16;17.40;73.60
11229;DHT22;5671;47.936;8.716;2022-09-13T09:16:57;17.70;72.60
11229;DHT22;5671;47.936;8.716;2022-09-13T09:20:00;17.90;71.90
11229;DHT22;5671;47.936;8.716;2022-09-13T09:22:51;18.10;71.10
11229;DHT22;5671;47.936;8.716;2022-09-13T09:31:41;18.60;70.40
11229;DHT22;5671;47.936;8.716;2022-09-13T09:34:45;18.80;72.00
11229;DHT22;5671;47.936;8.716;2022-09-13T09:41:30;19.30;69.60
11229;DHT22;5671;47.936;8.716;2022-09-13T09:44:14;19.60;69.40
11229;DHT22;5671;47.936;8.716;2022-09-13T09:47:33;19.80;68.70
11229;DHT22;5671;47.936;8.716;2022-09-13T09:53:43;20.40;66.20
11229;DHT22;5671;47.936;8.716;2022-09-13T09:56:28;20.80;64.30
11229;DHT22;5671;47.936;8.716;2022-09-13T09:58:56;21.40;64.00
11229;DHT22;5671;47.936;8.716;2022-09-13T10:01:25;22.10;62.50
11229;DHT22;5671;47.936;8.716;2022-09-13T10:04:01;22.90;60.30
11229;DHT22;5671;47.936;8.716;2022-09-13T10:06:30;23.60;61.00
11229;DHT22;5671;47.936;8.716;2022-09-13T10:09:00;24.40;59.30
11229;DHT22;5671;47.936;8.716;2022-09-13T10:11:42;25.10;58.50
11229;DHT22;5671;47.936;8.716;2022-09-13T10:14:34;25.80;57.40
11229;DHT22;5671;47.936;8.716;2022-09-13T10:17:13;26.40;56.00
11229;DHT22;5671;47.936;8.716;2022-09-13T10:19:51;27.00;54.10
11229;DHT22;5671;47.936;8.716;2022-09-13T10:22:23;27.50;52.00
11229;DHT22;5671;47.936;8.716;2022-09-13T10:24:54;28.00;51.40
11229;DHT22;5671;47.936;8.716;2022-09-13T10:27:34;28.50;51.10
11229;DHT22;5671;47.936;8.716;2022-09-13T10:30:05;28.90;49.40
11229;DHT22;5671;47.936;8.716;2022-09-13T10:32:43;29.30;47.70
11229;DHT22;5671;47.936;8.716;2022-09-13T10:39:54;30.10;46.90
11229;DHT22;5671;47.936;8.716;2022-09-13T10:52:32;31.60;38.90
11229;DHT22;5671;47.936;8.716;2022-09-13T10:55:38;31.90;40.00
11229;DHT22;5671;47.936;8.716;2022-09-13T10:58:17;32.20;41.40
11229;DHT22;5671;47.936;8.716;2022-09-13T11:28:02;32.40;38.80
11229;DHT22;5671;47.936;8.716;2022-09-13T11:30:56;32.30;38.70
11229;DHT22;5671;47.936;8.716;2022-09-13T11:33:48;32.20;38.40
11229;DHT22;5671;47.936;8.716;2022-09-13T11:36:41;32.10;38.60
11229;DHT22;5671;47.936;8.716;2022-09-13T11:39:18;32.00;41.50
11229;DHT22;5671;47.936;8.716;2022-09-13T11:45:14;31.20;43.40
11229;DHT22;5671;47.936;8.716;2022-09-13T11:47:51;30.90;42.50
11229;DHT22;5671;47.936;8.716;2022-09-13T11:50:35;30.70;43.60
11229;DHT22;5671;47.936;8.716;2022-09-13T11:53:27;30.70;43.90
11229;DHT22;5671;47.936;8.716;2022-09-13T11:56:00;30.70;43.40
11229;DHT22;5671;47.936;8.716;2022-09-13T11:58:34;30.80;43.90
11229;DHT22;5671;47.936;8.716;2022-09-13T12:01:05;31.10;43.40
11229;DHT22;5671;47.936;8.716;2022-09-13T12:03:39;31.30;43.00
11229;DHT22;5671;47.936;8.716;2022-09-13T12:06:12;31.70;43.20
11229;DHT22;5671;47.936;8.716;2022-09-13T12:08:44;32.10;41.60
11229;DHT22;5671;47.936;8.716;2022-09-13T12:11:20;32.40;41.50
11229;DHT22;5671;47.936;8.716;2022-09-13T12:13:50;32.70;40.40
11229;DHT22;5671;47.936;8.716;2022-09-13T12:16:22;32.80;41.00
11229;DHT22;5671;47.936;8.716;2022-09-13T12:18:55;33.00;40.80
11229;DHT22;5671;47.936;8.716;2022-09-13T12:21:29;33.00;40.60
11229;DHT22;5671;47.936;8.716;2022-09-13T12:24:02;33.10;41.40
11229;DHT22;5671;47.936;8.716;2022-09-13T12:26:36;33.00;40.80
11229;DHT22;5671;47.936;8.716;2022-09-13T12:29:11;33.10;39.50
11229;DHT22;5671;47.936;8.716;2022-09-13T12:31:39;33.10;40.50
11229;DHT22;5671;47.936;8.716;2022-09-13T12:34:10;32.90;39.90
11229;DHT22;5671;47.936;8.716;2022-09-13T12:43:05;32.10;41.10
11229;DHT22;5671;47.936;8.716;2022-09-13T12:51:40;31.70;41.10
11229;DHT22;5671;47.936;8.716;2022-09-13T12:54:35;31.50;41.00
11229;DHT22;5671;47.936;8.716;2022-09-13T12:57:20;31.30;41.90
11229;DHT22;5671;47.936;8.716;2022-09-13T13:00:09;31.20;41.80
11229;DHT22;5671;47.936;8.716;2022-09-13T13:02:40;31.00;41.90
11229;DHT22;5671;47.936;8.716;2022-09-13T13:05:27;30.70;42.90
11229;DHT22;5671;47.936;8.716;2022-09-13T13:08:25;30.60;43.00
11229;DHT22;5671;47.936;8.716;2022-09-13T13:11:21;30.30;42.90
11229;DHT22;5671;47.936;8.716;2022-09-13T13:20:38;29.80;45.30
11229;DHT22;5671;47.936;8.716;2022-09-13T13:23:24;29.60;44.90
11229;DHT22;5671;47.936;8.716;2022-09-13T13:26:06;29.40;44.40
11229;DHT22;5671;47.936;8.716;2022-09-13T13:28:48;29.30;45.00
11229;DHT22;5671;47.936;8.716;2022-09-13T13:31:35;29.10;44.50
11229;DHT22;5671;47.936;8.716;2022-09-13T13:34:39;29.00;45.70
11229;DHT22;5671;47.936;8.716;2022-09-13T13:37:34;28.90;46.60
11229;DHT22;5671;47.936;8.716;2022-09-13T13:40:36;28.90;45.00
11229;DHT22;5671;47.936;8.716;2022-09-13T13:43:29;28.90;46.70
11229;DHT22;5671;47.936;8.716;2022-09-13T13:48:40;28.90;46.50
11229;DHT22;5671;47.936;8.716;2022-09-13T13:51:22;28.80;45.50
11229;DHT22;5671;47.936;8.716;2022-09-13T13:53:56;28.70;44.70
11229;DHT22;5671;47.936;8.716;2022-09-13T13:56:47;28.60;45.00
11229;DHT22;5671;47.936;8.716;2022-09-13T13:59:25;28.50;45.80
11229;DHT22;5671;47.936;8.716;2022-09-13T14:01:55;28.50;46.20
11229;DHT22;5671;47.936;8.716;2022-09-13T14:04:45;28.40;47.30
11229;DHT22;5671;47.936;8.716;2022-09-13T14:10:13;28.50;46.00
11229;DHT22;5671;47.936;8.716;2022-09-13T14:12:54;28.40;45.70
11229;DHT22;5671;47.936;8.716;2022-09-13T14:15:31;28.50;47.40
11229;DHT22;5671;47.936;8.716;2022-09-13T14:21:30;28.60;47.00
11229;DHT22;5671;47.936;8.716;2022-09-13T14:24:36;28.80;46.20
11229;DHT22;5671;47.936;8.716;2022-09-13T14:27:15;29.00;45.10
11229;DHT22;5671;47.936;8.716;2022-09-13T14:30:03;29.10;45.40
11229;DHT22;5671;47.936;8.716;2022-09-13T14:32:39;29.20;44.20
11229;DHT22;5671;47.936;8.716;2022-09-13T14:35:24;29.20;43.80
11229;DHT22;5671;47.936;8.716;2022-09-13T14:37:52;29.30;45.00
11229;DHT22;5671;47.936;8.716;2022-09-13T14:40:21;29.30;44.60
11229;DHT22;5671;47.936;8.716;2022-09-13T14:42:49;29.30;44.00
11229;DHT22;5671;47.936;8.716;2022-09-13T14:45:21;29.30;43.60
11229;DHT22;5671;47.936;8.716;2022-09-13T14:47:52;29.30;44.10
11229;DHT22;5671;47.936;8.716;2022-09-13T14:50:25;29.20;43.90
11229;DHT22;5671;47.936;8.716;2022-09-13T14:52:53;29.30;44.90
11229;DHT22;5671;47.936;8.716;2022-09-13T14:55:26;29.40;43.70
11229;DHT22;5671;47.936;8.716;2022-09-13T14:57:57;29.50;44.30
11229;DHT22;5671;47.936;8.716;2022-09-13T15:00:28;29.50;44.50
11229;DHT22;5671;47.936;8.716;2022-09-13T15:02:57;29.40;44.20
11229;DHT22;5671;47.936;8.716;2022-09-13T15:05:27;29.30;43.80
11229;DHT22;5671;47.936;8.716;2022-09-13T15:07:55;29.20;43.10
11229;DHT22;5671;47.936;8.716;2022-09-13T15:10:24;29.00;44.90
11229;DHT22;5671;47.936;8.716;2022-09-13T15:12:54;28.90;44.80
11229;DHT22;5671;47.936;8.716;2022-09-13T15:15:34;28.60;44.90
11229;DHT22;5671;47.936;8.716;2022-09-13T15:18:04;28.50;45.60
11229;DHT22;5671;47.936;8.716;2022-09-13T15:20:45;28.30;46.20
11229;DHT22;5671;47.936;8.716;2022-09-13T15:23:17;28.10;47.10
11229;DHT22;5671;47.936;8.716;2022-09-13T15:25:50;28.00;47.20
11229;DHT22;5671;47.936;8.716;2022-09-13T15:28:21;27.80;47.60
11229;DHT22;5671;47.936;8.716;2022-09-13T15:30:50;27.70;48.10
11229;DHT22;5671;47.936;8.716;2022-09-13T15:33:23;27.60;47.10
11229;DHT22;5671;47.936;8.716;2022-09-13T15:35:51;27.50;47.70
11229;DHT22;5671;47.936;8.716;2022-09-13T15:38:24;27.40;48.00
11229;DHT22;5671;47.936;8.716;2022-09-13T15:41:00;27.30;48.10
11229;DHT22;5671;47.936;8.716;2022-09-13T15:43:28;27.30;47.80
11229;DHT22;5671;47.936;8.716;2022-09-13T15:45:57;27.10;48.80
11229;DHT22;5671;47.936;8.716;2022-09-13T15:48:46;27.00;49.20
11229;DHT22;5671;47.936;8.716;2022-09-13T15:51:16;26.80;48.20
11229;DHT22;5671;47.936;8.716;2022-09-13T15:53:44;26.70;48.80
11229;DHT22;5671;47.936;8.716;2022-09-13T15:57:12;26.60;49.50
11229;DHT22;5671;47.936;8.716;2022-09-13T15:59:51;26.50;50.20
11229;DHT22;5671;47.936;8.716;2022-09-13T16:02:23;26.30;50.80
11229;DHT22;5671;47.936;8.716;2022-09-13T16:04:51;26.20;52.30
11229;DHT22;5671;47.936;8.716;2022-09-13T16:07:18;26.10;52.10
11229;DHT22;5671;47.936;8.716;2022-09-13T16:09:46;26.00;50.20
11229;DHT22;5671;47.936;8.716;2022-09-13T16:15:39;25.70;50.40
11229;DHT22;5671;47.936;8.716;2022-09-13T16:18:08;25.60;50.90
11229;DHT22;5671;47.936;8.716;2022-09-13T16:20:35;25.50;52.20
11229;DHT22;5671;47.936;8.716;2022-09-13T16:23:04;25.40;51.30
11229;DHT22;5671;47.936;8.716;2022-09-13T16:25:32;25.20;52.10
11229;DHT22;5671;47.936;8.716;2022-09-13T16:27:59;25.10;52.40
11229;DHT22;5671;47.936;8.716;2022-09-13T16:30:38;25.00;50.90
11229;DHT22;5671;47.936;8.716;2022-09-13T16:33:18;24.90;51.20
11229;DHT22;5671;47.936;8.716;2022-09-13T16:53:16;24.30;56.80
11229;DHT22;5671;47.936;8.716;2022-09-13T16:56:11;24.10;58.20
11229;DHT22;5671;47.936;8.716;2022-09-13T16:58:40;24.00;59.00
11229;DHT22;5671;47.936;8.716;2022-09-13T17:01:11;23.90;58.30
11229;DHT22;5671;47.936;8.716;2022-09-13T17:03:58;23.80;59.00
11229;DHT22;5671;47.936;8.716;2022-09-13T17:06:39;23.70;58.60
11229;DHT22;5671;47.936;8.716;2022-09-13T17:09:07;23.60;59.60
11229;DHT22;5671;47.936;8.716;2022-09-13T17:11:40;23.50;60.30
11229;DHT22;5671;47.936;8.716;2022-09-13T17:15:00;23.40;60.40
11229;DHT22;5671;47.936;8.716;2022-09-13T17:17:27;23.20;60.70
11229;DHT22;5671;47.936;8.716;2022-09-13T17:20:47;23.10;60.30
11229;DHT22;5671;47.936;8.716;2022-09-13T17:23:21;23.00;60.90
11229;DHT22;5671;47.936;8.716;2022-09-13T17:26:03;22.90;61.30
11229;DHT22;5671;47.936;8.716;2022-09-13T17:28:30;22.80;61.60
11229;DHT22;5671;47.936;8.716;2022-09-13T17:30:59;22.60;62.50
11229;DHT22;5671;47.936;8.716;2022-09-13T17:33:27;22.50;62.50
11229;DHT22;5671;47.936;8.716;2022-09-13T17:35:57;22.40;62.10
11229;DHT22;5671;47.936;8.716;2022-09-13T17:38:24;22.30;62.60
11229;DHT22;5671;47.936;8.716;2022-09-13T17:40:58;22.20;62.30
11229;DHT22;5671;47.936;8.716;2022-09-13T17:43:41;22.10;61.20
11229;DHT22;5671;47.936;8.716;2022-09-13T17:46:11;22.00;62.70
11229;DHT22;5671;47.936;8.716;2022-09-13T17:48:38;21.80;62.90
11229;DHT22;5671;47.936;8.716;2022-09-13T17:51:07;21.70;62.90
11229;DHT22;5671;47.936;8.716;2022-09-13T17:53:36;21.60;63.30
11229;DHT22;5671;47.936;8.716;2022-09-13T17:56:04;21.60;63.50
11229;DHT22;5671;47.936;8.716;2022-09-13T17:58:32;21.50;63.80
11229;DHT22;5671;47.936;8.716;2022-09-13T18:01:02;21.30;64.30
11229;DHT22;5671;47.936;8.716;2022-09-13T18:03:29;21.30;64.30
11229;DHT22;5671;47.936;8.716;2022-09-13T18:05:56;21.20;65.00
11229;DHT22;5671;47.936;8.716;2022-09-13T18:08:26;21.10;65.40
11229;DHT22;5671;47.936;8.716;2022-09-13T18:10:54;21.00;65.20
11229;DHT22;5671;47.936;8.716;2022-09-13T18:13:21;20.90;64.90
11229;DHT22;5671;47.936;8.716;2022-09-13T18:16:03;20.80;65.40
11229;DHT22;5671;47.936;8.716;2022-09-13T18:18:32;20.80;65.20
11229;DHT22;5671;47.936;8.716;2022-09-13T18:20:59;20.70;65.90
11229;DHT22;5671;47.936;8.716;2022-09-13T18:23:26;20.70;66.40
11229;DHT22;5671;47.936;8.716;2022-09-13T18:25:58;20.60;65.60
11229;DHT22;5671;47.936;8.716;2022-09-13T18:28:25;20.60;65.40
11229;DHT22;5671;47.936;8.716;2022-09-13T18:30:53;20.50;65.30
11229;DHT22;5671;47.936;8.716;2022-09-13T18:33:21;20.50;65.20
11229;DHT22;5671;47.936;8.716;2022-09-13T18:36:00;20.50;66.40
11229;DHT22;5671;47.936;8.716;2022-09-13T18:38:30;20.40;67.20
11229;DHT22;5671;47.936;8.716;2022-09-13T18:40:59;20.30;67.00
11229;DHT22;5671;47.936;8.716;2022-09-13T18:43:26;20.30;66.20
11229;DHT22;5671;47.936;8.716;2022-09-13T18:45:54;20.30;66.30
11229;DHT22;5671;47.936;8.716;2022-09-13T18:48:23;20.20;66.80
11229;DHT22;5671;47.936;8.716;2022-09-13T18:50:53;20.20;67.90
11229;DHT22;5671;47.936;8.716;2022-09-13T18:53:20;20.20;67.70
11229;DHT22;5671;47.936;8.716;2022-09-13T18:55:47;20.10;68.40
11229;DHT22;5671;47.936;8.716;2022-09-13T18:58:14;20.10;67.70
11229;DHT22;5671;47.936;8.716;2022-09-13T19:00:41;20.10;67.60
11229;DHT22;5671;47.936;8.716;2022-09-13T19:03:08;20.00;68.60
11229;DHT22;5671;47.936;8.716;2022-09-13T19:05:37;20.00;67.90
11229;DHT22;5671;47.936;8.716;2022-09-13T19:08:08;20.00;68.30